Time;durP1;ratioP1;P1;durP2;ratioP2;P2;SDS_P1;SDS_P2;PMS_P1;PMS_P2;Temp;Humidity;BMP_temperature;BMP_pressure;BME280_temperature;BME280_humidity;BME280_pressure;Samples;Min_cycle;Max_cycle;Signal;HPM_P1;HPM_P2
2022/01/19 00:00:11;;;;;;;;;52.75;44.50;;;;;4.04;82.27;102616.19;4999826;28;45339;-79
2022/01/19 00:02:37;;;;;;;;;55.00;44.50;;;;;3.90;81.65;102609.03;4999849;28;45251;-79
2022/01/19 00:05:03;;;;;;;;;43.25;39.50;;;;;3.83;82.40;102612.94;4998664;28;45257;-79
2022/01/19 00:07:29;;;;;;;;;42.50;37.00;;;;;3.75;81.91;102618.66;4999734;28;45167;-79
2022/01/19 00:09:54;;;;;;;;;37.00;36.00;;;;;3.61;81.90;102615.88;4999251;28;45436;-78
2022/01/19 00:12:19;;;;;;;;;45.50;37.25;;;;;3.58;82.28;102618.66;4981893;28;46169;-78
2022/01/19 00:14:44;;;;;;;;;37.50;35.00;;;;;3.59;82.09;102623.03;4999925;28;45329;-79
2022/01/19 00:17:10;;;;;;;;;42.75;38.00;;;;;3.50;83.08;102608.59;4999338;28;45361;-78
2022/01/19 00:19:35;;;;;;;;;46.75;39.25;;;;;3.51;82.74;102605.03;4999629;28;45875;-79
2022/01/19 00:22:01;;;;;;;;;48.25;41.00;;;;;3.56;82.97;102602.16;4999542;28;45321;-79
2022/01/19 00:24:26;;;;;;;;;48.00;41.00;;;;;3.55;83.65;102580.25;4981646;28;45310;-79
2022/01/19 00:26:51;;;;;;;;;54.50;45.25;;;;;3.57;83.83;102561.75;4999542;28;45295;-80
2022/01/19 00:29:16;;;;;;;;;57.50;46.00;;;;;3.64;83.27;102558.72;4981451;28;47501;-79
2022/01/19 00:31:42;;;;;;;;;43.50;38.25;;;;;3.74;83.91;102558.22;4981828;28;45353;-79
2022/01/19 00:34:07;;;;;;;;;55.75;44.00;;;;;3.76;83.43;102540.56;4981745;28;45277;-79
2022/01/19 00:36:33;;;;;;;;;40.00;32.75;;;;;3.79;83.48;102535.13;4999295;28;45476;-79
2022/01/19 00:38:58;;;;;;;;;51.25;43.50;;;;;3.69;83.17;102518.16;4999113;28;46122;-79
2022/01/19 00:41:23;;;;;;;;;53.00;41.75;;;;;3.87;83.04;102556.63;4999288;28;45354;-78
2022/01/19 00:43:49;;;;;;;;;51.00;43.25;;;;;3.91;83.10;102571.28;4999506;28;45398;-79
2022/01/19 00:46:14;;;;;;;;;53.75;44.25;;;;;3.95;83.29;102579.84;4999292;28;45258;-79
2022/01/19 00:48:41;;;;;;;;;56.00;46.00;;;;;3.99;83.70;102570.00;4981462;28;47202;-80
2022/01/19 00:51:07;;;;;;;;;53.25;43.25;;;;;3.95;83.43;102555.34;4999289;28;45305;-79
2022/01/19 00:53:32;;;;;;;;;56.50;47.50;;;;;3.94;83.59;102557.09;4981269;28;45317;-79
2022/01/19 00:55:58;;;;;;;;;57.00;46.75;;;;;3.92;83.86;102567.72;4999050;28;45460;-79
2022/01/19 00:58:23;;;;;;;;;54.50;44.25;;;;;3.95;84.42;102568.50;4999197;28;46178;-80
2022/01/19 01:00:49;;;;;;;;;54.25;46.75;;;;;3.99;84.10;102562.13;4999101;28;45169;-78
2022/01/19 01:03:14;;;;;;;;;59.50;48.25;;;;;3.97;84.08;102546.41;4999453;28;45301;-80
2022/01/19 01:05:40;;;;;;;;;66.25;51.25;;;;;4.03;83.80;102555.75;4981191;28;47209;-79
2022/01/19 01:08:06;;;;;;;;;66.00;51.50;;;;;4.05;84.35;102551.25;4980936;28;45897;-80
2022/01/19 01:10:40;;;;;;;;;61.25;51.75;;;;;4.08;83.86;102535.28;4998864;28;45378;-80
2022/01/19 01:13:23;;;;;;;;;67.25;51.25;;;;;4.19;83.68;102537.28;4981333;28;45319;-79
2022/01/19 01:16:03;;;;;;;;;66.75;53.50;;;;;4.23;83.43;102527.44;4984356;28;45473;-79
2022/01/19 01:18:30;;;;;;;;;64.00;53.75;;;;;4.26;83.39;102516.75;5002023;28;46515;-78
2022/01/19 01:20:57;;;;;;;;;62.00;49.50;;;;;4.29;83.46;102519.22;5002353;28;45239;-79
2022/01/19 01:23:27;;;;;;;;;62.00;50.75;;;;;4.27;83.87;102514.03;5002274;28;45207;-79
2022/01/19 01:25:54;;;;;;;;;63.00;50.25;;;;;4.21;83.65;102495.09;5001956;28;45351;-79
2022/01/19 01:28:19;;;;;;;;;71.50;56.75;;;;;4.33;83.84;102512.81;4984499;28;48159;-79
2022/01/19 01:30:46;;;;;;;;;62.00;52.00;;;;;4.39;83.66;102519.50;4984104;28;45287;-79
2022/01/19 01:33:12;;;;;;;;;55.00;43.50;;;;;4.42;83.83;102525.47;4984637;28;45247;-79
2022/01/19 01:35:38;;;;;;;;;57.75;48.00;;;;;4.46;83.51;102528.75;5002016;28;45460;-79
2022/01/19 01:38:05;;;;;;;;;55.25;45.25;;;;;4.42;83.94;102530.72;4984006;28;48000;-78
2022/01/19 01:40:33;;;;;;;;;55.50;46.00;;;;;4.42;83.15;102530.72;5001952;28;45327;-78
2022/01/19 01:43:00;;;;;;;;;55.75;45.00;;;;;4.46;83.03;102536.63;4984266;28;45463;-79
2022/01/19 01:45:30;;;;;;;;;58.25;46.25;;;;;4.44;83.27;102535.03;5001907;28;45247;-78
2022/01/19 01:48:29;;;;;;;;;52.50;44.00;;;;;4.33;83.37;102514.59;4983983;28;47201;-79
2022/01/19 01:53:34;;;;;;;;;55.00;45.00;;;;;4.47;82.97;102524.34;5001580;28;45169;-78
2022/01/19 01:55:59;;;;;;;;;55.25;45.25;;;;;4.56;82.75;102531.69;5001507;28;45542;-78
2022/01/19 01:58:26;;;;;;;;;51.75;44.50;;;;;4.49;83.00;102525.09;5001582;28;45348;-79
2022/01/19 02:00:54;;;;;;;;;52.50;44.25;;;;;4.36;82.91;102507.38;4984091;28;45365;-79
2022/01/19 02:03:20;;;;;;;;;55.00;46.25;;;;;4.38;82.97;102502.03;5001760;28;45289;-79
2022/01/19 02:06:20;;;;;;;;;55.75;46.00;;;;;4.44;83.48;102506.94;5001403;28;45217;-79
2022/01/19 02:08:41;;;;;;;;;58.00;48.25;;;;;4.44;83.24;102504.31;5000598;28;45675;-79
2022/01/19 02:21:57;;;;;;;;;57.25;46.00;;;;;4.42;83.42;102467.53;5001163;28;45358;-80
2022/01/19 02:24:27;;;;;;;;;58.50;47.75;;;;;4.48;83.39;102463.69;5001109;28;45274;-79
2022/01/19 02:28:55;;;;;;;;;52.50;44.25;;;;;4.52;83.38;102467.81;5000137;28;45425;-79
2022/01/19 02:30:45;;;;;;;;;55.75;46.25;;;;;4.56;83.17;102455.31;5000856;28;45904;-81
2022/01/19 02:40:57;;;;;;;;;57.50;46.00;;;;;4.54;83.47;102423.81;5000806;28;45854;-79
2022/01/19 02:43:25;;;;;;;;;42.25;38.00;;;;;4.58;83.20;102421.81;5000901;28;45397;-79
2022/01/19 02:51:20;;;;;;;;;53.00;44.50;;;;;4.64;83.10;102415.34;5000805;28;45368;-79
2022/01/19 02:53:45;;;;;;;;;50.00;42.00;;;;;4.63;83.53;102409.25;4982892;28;46108;-79
2022/01/19 02:56:17;;;;;;;;;52.00;43.75;;;;;4.59;83.24;102396.34;4983024;28;45272;-79
2022/01/19 02:58:51;;;;;;;;;42.50;37.25;;;;;4.64;83.34;102403.00;5015681;28;46111;-79
2022/01/19 03:09:23;;;;;;;;;38.75;35.75;;;;;4.74;82.86;102397.19;4999962;28;45321;-79
2022/01/19 03:11:48;;;;;;;;;43.25;39.50;;;;;4.71;83.19;102394.75;5000473;28;45341;-79
2022/01/19 03:14:13;;;;;;;;;42.00;36.75;;;;;4.62;83.05;102381.22;5000569;28;45370;-80
2022/01/19 03:16:39;;;;;;;;;41.50;37.50;;;;;4.63;83.39;102374.13;5000615;28;45286;-78
2022/01/19 03:19:08;;;;;;;;;42.00;36.50;;;;;4.76;82.89;102390.06;5000149;28;45293;-80
2022/01/19 03:21:34;;;;;;;;;36.75;34.50;;;;;4.74;83.13;102381.38;5000361;28;46035;-79
2022/01/19 03:24:00;;;;;;;;;40.00;35.75;;;;;4.67;82.99;102368.59;5000086;28;45288;-79
2022/01/19 03:26:25;;;;;;;;;42.50;38.75;;;;;4.67;83.13;102371.22;4982787;28;45302;-79
2022/01/19 03:28:51;;;;;;;;;36.25;31.25;;;;;4.76;83.45;102387.41;5000190;28;45330;-79
2022/01/19 03:31:16;;;;;;;;;39.25;36.50;;;;;4.67;83.25;102379.13;5000268;28;46299;-79
2022/01/19 03:33:42;;;;;;;;;37.00;32.75;;;;;4.70;83.39;102385.97;4982362;28;45339;-79
2022/01/19 03:36:07;;;;;;;;;35.50;32.75;;;;;4.72;83.62;102392.00;5000378;28;45321;-79
2022/01/19 03:38:33;;;;;;;;;35.75;34.00;;;;;4.67;83.18;102373.84;4981948;28;45989;-78
2022/01/19 03:40:58;;;;;;;;;39.75;35.00;;;;;4.76;83.33;102397.97;4982270;28;47272;-80
2022/01/19 03:43:23;;;;;;;;;38.00;30.25;;;;;4.77;83.37;102397.00;5000131;28;45283;-79
2022/01/19 03:45:52;;;;;;;;;31.25;29.25;;;;;4.84;83.28;102398.31;5000243;28;45608;-79
2022/01/19 03:50:47;;;;;;;;;35.00;31.75;;;;;4.84;83.43;102382.50;4982887;28;45373;-79
2022/01/19 03:53:13;;;;;;;;;28.75;28.75;;;;;4.88;82.98;102383.16;4999553;28;45490;-80
2022/01/19 03:55:38;;;;;;;;;29.50;27.50;;;;;4.85;83.09;102373.66;4999915;28;45338;-79
2022/01/19 03:58:04;;;;;;;;;31.00;28.00;;;;;4.72;82.75;102352.50;4999930;28;45299;-79
2022/01/19 04:00:34;;;;;;;;;29.75;29.50;;;;;4.90;83.57;102365.47;4999848;28;45295;-78
2022/01/19 04:02:59;;;;;;;;;39.25;34.75;;;;;4.77;83.16;102350.44;5000202;28;45279;-80
2022/01/19 04:05:38;;;;;;;;;37.00;33.25;;;;;4.76;83.60;102348.72;4999887;28;45478;-79
2022/01/19 04:08:04;;;;;;;;;35.25;33.75;;;;;4.84;83.65;102356.16;4999449;28;46014;-79
2022/01/19 04:10:29;;;;;;;;;34.75;32.25;;;;;4.83;83.58;102349.19;4999614;28;45331;-79
2022/01/19 04:13:08;;;;;;;;;39.25;32.75;;;;;4.77;83.45;102337.28;4999640;28;45209;-79
2022/01/19 04:15:33;;;;;;;;;31.50;30.50;;;;;4.80;83.34;102336.22;4999933;28;45304;-79
2022/01/19 04:17:58;;;;;;;;;36.50;31.75;;;;;4.85;83.37;102352.56;4999164;28;45300;-79
2022/01/19 04:20:26;;;;;;;;;36.25;33.00;;;;;4.87;83.80;102349.84;4999675;28;45891;-79
2022/01/19 04:22:51;;;;;;;;;40.75;34.75;;;;;4.79;83.43;102329.28;4999288;28;45310;-79
2022/01/19 04:25:17;;;;;;;;;40.25;36.50;;;;;4.97;83.41;102343.03;4981697;28;45348;-79
2022/01/19 04:27:44;;;;;;;;;42.00;36.00;;;;;4.96;83.53;102349.25;4981617;28;46653;-79
2022/01/19 04:30:12;;;;;;;;;33.00;32.00;;;;;4.94;83.53;102338.00;4981492;28;47510;-79
2022/01/19 04:32:51;;;;;;;;;37.50;33.50;;;;;5.00;83.43;102345.47;4999422;28;45321;-79
2022/01/19 04:35:21;;;;;;;;;36.00;34.00;;;;;4.92;83.22;102332.81;4999577;28;45310;-79
2022/01/19 05:02:36;;;;;;;;;32.50;27.50;;;;;4.98;83.25;102342.13;4975202;28;45505;-79
2022/01/19 05:05:17;;;;;;;;;34.00;32.00;;;;;4.99;83.23;102342.94;4980585;28;45411;-79
2022/01/19 05:08:14;;;;;;;;;37.75;34.25;;;;;4.95;83.07;102344.94;5009821;28;45307;-79
2022/01/19 05:13:53;;;;;;;;;34.25;32.25;;;;;4.90;83.16;102332.06;5022036;28;46187;-78
2022/01/19 05:15:54;;;;;;;;;36.00;31.50;;;;;4.99;83.38;102343.81;5017731;28;45240;-78
2022/01/19 05:18:20;;;;;;;;;35.50;32.25;;;;;5.01;83.44;102351.59;5012181;28;45360;-80
2022/01/19 05:20:47;;;;;;;;;36.75;33.25;;;;;5.05;83.39;102347.81;4989208;28;46194;-79
2022/01/19 05:23:12;;;;;;;;;36.25;32.00;;;;;4.77;83.54;102299.53;5001996;28;46542;-79
2022/01/19 05:25:38;;;;;;;;;41.50;36.75;;;;;5.05;83.57;102338.16;5001855;28;45285;-79
2022/01/19 05:28:04;;;;;;;;;38.75;34.25;;;;;5.05;83.25;102342.56;5017618;28;45332;-79
2022/01/19 05:30:29;;;;;;;;;42.75;37.25;;;;;4.96;83.18;102324.69;5002074;28;45173;-80
2022/01/19 05:32:54;;;;;;;;;35.00;32.50;;;;;4.98;83.38;102322.81;5017357;28;47250;-79
2022/01/19 05:35:20;;;;;;;;;38.25;31.75;;;;;5.09;83.36;102325.59;5002151;28;45328;-77
2022/01/19 05:37:45;;;;;;;;;38.75;35.00;;;;;5.10;83.22;102329.09;4984095;28;45479;-78
2022/01/19 05:40:14;;;;;;;;;36.50;34.25;;;;;5.10;82.93;102329.94;5002029;28;45254;-78
2022/01/19 05:42:39;;;;;;;;;35.75;34.00;;;;;5.06;82.92;102325.81;5001851;28;46057;-77
2022/01/19 05:45:05;;;;;;;;;37.75;34.75;;;;;5.00;83.00;102315.66;5001904;28;45316;-78
2022/01/19 05:47:30;;;;;;;;;41.00;33.25;;;;;4.98;83.18;102325.44;5002074;28;45572;-80
2022/01/19 05:49:56;;;;;;;;;33.50;30.75;;;;;5.00;83.11;102334.13;5001982;28;45569;-79
2022/01/19 05:52:21;;;;;;;;;37.75;33.75;;;;;5.01;83.54;102335.81;4984122;28;48305;-79
2022/01/19 05:54:47;;;;;;;;;34.25;30.50;;;;;4.95;83.38;102323.00;4983858;28;45343;-80
2022/01/19 05:57:13;;;;;;;;;41.50;34.25;;;;;4.97;83.15;102318.50;4984031;28;45342;-78
2022/01/19 05:59:38;;;;;;;;;33.50;32.25;;;;;5.06;83.09;102336.38;5001686;28;45187;-79
2022/01/19 06:02:04;;;;;;;;;36.25;35.25;;;;;4.99;82.96;102324.50;5001553;28;46168;-79
2022/01/19 06:04:30;;;;;;;;;36.00;33.75;;;;;5.06;83.27;102331.09;5001731;28;45291;-79
2022/01/19 06:06:56;;;;;;;;;37.50;35.50;;;;;5.06;83.37;102328.47;5001851;28;45309;-78
2022/01/19 06:12:09;;;;;;;;;41.25;35.75;;;;;4.98;83.48;102314.91;5001309;28;45313;-77
2022/01/19 06:14:36;;;;;;;;;31.50;29.50;;;;;5.02;83.32;102325.16;4999986;28;45382;-80
2022/01/19 06:17:04;;;;;;;;;33.25;30.50;;;;;5.01;83.41;102322.63;5001469;28;45243;-80
2022/01/19 06:19:29;;;;;;;;;38.25;34.25;;;;;5.00;83.40;102321.75;5001035;28;45447;-79
2022/01/19 06:21:54;;;;;;;;;32.25;30.75;;;;;5.02;83.23;102322.53;5001237;28;45366;-79
2022/01/19 06:24:20;;;;;;;;;40.50;37.50;;;;;4.96;83.44;102315.00;5001119;28;45328;-79
2022/01/19 06:26:46;;;;;;;;;39.75;36.25;;;;;4.98;83.40;102317.53;4983752;28;45552;-79
2022/01/19 06:29:11;;;;;;;;;40.25;36.00;;;;;4.99;83.18;102317.44;4991451;28;47334;-77
2022/01/19 06:31:37;;;;;;;;;67.25;53.25;;;;;4.95;83.06;102305.41;5002341;28;48369;-79
2022/01/19 06:34:02;;;;;;;;;46.00;38.75;;;;;5.02;83.11;102313.75;5015351;28;45287;-78
2022/01/19 06:36:28;;;;;;;;;44.75;37.50;;;;;5.06;83.66;102315.28;5000172;28;45387;-79
2022/01/19 06:38:53;;;;;;;;;42.00;37.25;;;;;4.99;83.11;102300.78;4999990;28;45396;-79
2022/01/19 06:41:18;;;;;;;;;42.25;38.00;;;;;5.03;83.25;102312.84;5000430;28;46154;-79
2022/01/19 06:43:44;;;;;;;;;51.50;43.50;;;;;5.03;83.47;102318.94;5020732;28;45277;-77
2022/01/19 06:46:10;;;;;;;;;41.75;38.25;;;;;4.98;83.30;102313.13;5004646;28;45613;-79
2022/01/19 06:48:35;;;;;;;;;38.50;35.75;;;;;5.03;83.13;102312.84;5000107;28;45381;-78
2022/01/19 06:51:01;;;;;;;;;31.00;27.75;;;;;5.02;83.28;102313.75;5000294;28;45409;-78
2022/01/19 06:53:26;;;;;;;;;35.75;34.25;;;;;5.03;82.96;102312.84;5000639;28;45300;-78
2022/01/19 06:55:57;;;;;;;;;37.50;34.00;;;;;5.09;82.93;102317.69;5000862;28;45314;-78
2022/01/19 06:58:22;;;;;;;;;35.75;32.00;;;;;5.00;83.02;102299.84;5000793;28;45308;-78
2022/01/19 07:00:48;;;;;;;;;39.50;33.75;;;;;5.05;82.91;102316.19;5015890;28;46019;-78
2022/01/19 07:03:13;;;;;;;;;32.00;29.00;;;;;5.08;83.22;102312.50;4999293;28;45294;-78
2022/01/19 07:05:39;;;;;;;;;33.75;32.25;;;;;5.10;83.04;102310.63;5000630;28;45366;-78
2022/01/19 07:08:05;;;;;;;;;34.00;32.50;;;;;5.08;83.19;102307.25;5000365;28;45351;-78
2022/01/19 07:10:31;;;;;;;;;32.50;30.50;;;;;5.04;82.93;102301.34;5000410;28;46108;-79
2022/01/19 07:13:02;;;;;;;;;37.50;34.25;;;;;5.04;83.01;102314.53;5000140;28;45185;-77
2022/01/19 07:15:27;;;;;;;;;32.50;31.25;;;;;4.99;82.99;102309.53;5000750;28;45270;-77
2022/01/19 07:17:53;;;;;;;;;30.25;29.00;;;;;4.91;82.87;102296.03;5013473;28;46003;-77
2022/01/19 07:20:18;;;;;;;;;38.50;35.00;;;;;5.07;82.95;102316.09;4999597;28;45335;-77
2022/01/19 07:22:44;;;;;;;;;33.25;33.25;;;;;5.04;83.15;102307.47;4998890;28;45387;-78
2022/01/19 07:25:10;;;;;;;;;39.75;34.75;;;;;5.03;83.13;102313.66;5000376;28;46016;-77
2022/01/19 07:27:36;;;;;;;;;33.75;31.25;;;;;5.10;83.25;102326.44;5000561;28;45218;-77
2022/01/19 07:30:03;;;;;;;;;37.00;33.25;;;;;5.10;82.88;102322.03;4999866;28;46313;-78
2022/01/19 07:32:33;;;;;;;;;39.50;34.25;;;;;5.05;82.78;102313.56;5000297;28;45258;-77
2022/01/19 07:34:58;;;;;;;;;40.00;34.00;;;;;5.10;83.12;102327.31;4998566;28;45306;-76
2022/01/19 07:37:24;;;;;;;;;33.50;28.50;;;;;5.07;82.75;102318.75;5000014;28;45341;-77
2022/01/19 07:39:50;;;;;;;;;38.50;35.00;;;;;5.01;82.99;102305.03;4999924;28;45978;-77
2022/01/19 07:42:15;;;;;;;;;41.00;34.50;;;;;5.10;82.75;102321.19;4997188;28;45425;-78
2022/01/19 07:44:41;;;;;;;;;36.25;33.75;;;;;5.13;82.86;102321.84;5000273;28;45265;-77
2022/01/19 07:47:06;;;;;;;;;38.25;33.50;;;;;5.17;82.94;102325.97;5015424;28;45760;-75
2022/01/19 07:49:32;;;;;;;;;39.50;36.00;;;;;5.02;83.03;102306.72;5000009;28;45273;-76
2022/01/19 07:51:57;;;;;;;;;38.25;35.00;;;;;5.18;83.12;102332.91;4998614;28;45764;-77
2022/01/19 07:54:23;;;;;;;;;42.75;36.75;;;;;5.14;83.16;102320.03;4981937;28;45324;-76
2022/01/19 07:56:48;;;;;;;;;33.00;31.00;;;;;5.22;83.08;102338.84;4999975;28;45240;-78
2022/01/19 07:59:14;;;;;;;;;39.00;35.50;;;;;5.17;82.51;102328.59;4998332;28;45426;-77
2022/01/19 08:01:40;;;;;;;;;38.00;34.50;;;;;5.13;82.97;102319.22;4980232;28;45363;-77
2022/01/19 08:04:06;;;;;;;;;32.50;30.25;;;;;5.26;82.91;102336.84;4962741;28;45274;-77
2022/01/19 08:06:31;;;;;;;;;36.75;34.00;;;;;5.23;82.69;102326.50;4962674;28;46090;-78
2022/01/19 08:08:57;;;;;;;;;46.25;40.00;;;;;5.28;83.00;102343.72;4979830;28;45618;-79
2022/01/19 08:11:23;;;;;;;;;42.00;34.25;;;;;5.29;82.89;102340.13;4980152;28;45326;-79
2022/01/19 08:13:48;;;;;;;;;37.25;33.50;;;;;5.28;83.15;102337.59;4978794;28;45408;-78
2022/01/19 08:16:14;;;;;;;;;41.75;37.50;;;;;5.33;82.77;102339.94;4980029;28;45529;-80
2022/01/19 08:18:39;;;;;;;;;40.25;35.75;;;;;5.34;83.06;102341.63;4972733;28;46861;-77
2022/01/19 08:21:05;;;;;;;;;41.50;36.50;;;;;5.29;82.90;102336.66;4994868;28;45431;-79
2022/01/19 08:23:30;;;;;;;;;39.25;35.75;;;;;5.30;83.06;102333.09;4998466;28;45139;-79
2022/01/19 08:25:55;;;;;;;;;41.50;34.25;;;;;5.36;83.11;102337.09;5002883;28;45484;-79
2022/01/19 08:28:21;;;;;;;;;45.75;37.75;;;;;5.26;82.91;102326.28;4978558;28;47285;-79
2022/01/19 08:30:47;;;;;;;;;37.50;33.75;;;;;5.29;83.02;102334.88;5001101;28;45246;-79
2022/01/19 08:33:12;;;;;;;;;36.75;33.25;;;;;5.26;82.95;102323.66;5002843;28;45315;-79
2022/01/19 08:35:38;;;;;;;;;50.50;38.25;;;;;5.36;82.89;102345.03;5002538;28;45232;-78
2022/01/19 08:38:04;;;;;;;;;50.00;40.75;;;;;5.33;83.29;102335.53;5002608;28;46226;-79
2022/01/19 08:40:30;;;;;;;;;39.25;35.50;;;;;5.44;83.02;102350.63;5002980;28;45230;-77
2022/01/19 08:42:56;;;;;;;;;41.75;36.00;;;;;5.39;82.89;102343.00;5000975;28;45336;-79
2022/01/19 08:45:22;;;;;;;;;42.00;36.25;;;;;5.51;82.99;102359.00;5000798;28;45578;-77
2022/01/19 08:47:48;;;;;;;;;48.75;41.50;;;;;5.48;83.22;102351.28;5001693;28;45310;-78
2022/01/19 08:50:15;;;;;;;;;47.00;39.75;;;;;5.55;82.94;102358.69;5010371;28;45384;-77
2022/01/19 08:52:45;;;;;;;;;50.00;40.50;;;;;5.59;82.91;102361.13;5004662;28;45432;-78
2022/01/19 08:55:11;;;;;;;;;45.50;39.00;;;;;5.59;83.10;102356.69;5000158;28;45584;-77
2022/01/19 08:57:36;;;;;;;;;52.50;43.00;;;;;5.63;83.12;102370.53;4997790;28;48552;-78
2022/01/19 09:00:07;;;;;;;;;54.50;45.50;;;;;5.63;82.92;102373.16;4999450;28;45285;-79
2022/01/19 09:02:32;;;;;;;;;47.00;38.75;;;;;5.63;83.43;102375.81;5010271;28;45364;-79
2022/01/19 09:04:58;;;;;;;;;55.50;44.00;;;;;5.62;83.13;102367.03;4983505;28;45270;-80
2022/01/19 09:07:23;;;;;;;;;53.75;42.50;;;;;5.63;83.14;102379.25;4965964;28;47335;-78
2022/01/19 09:09:48;;;;;;;;;57.00;45.50;;;;;5.68;83.07;102382.47;4982657;28;45292;-80
2022/01/19 09:12:14;;;;;;;;;55.00;45.50;;;;;5.71;83.09;102385.84;4965539;28;45639;-77
2022/01/19 09:14:39;;;;;;;;;56.75;45.00;;;;;5.74;82.96;102385.63;4982711;28;45297;-79
2022/01/19 09:17:08;;;;;;;;;54.25;44.00;;;;;5.73;83.14;102379.53;4982281;28;45281;-79
2022/01/19 09:19:35;;;;;;;;;50.25;39.25;;;;;5.42;83.01;102331.44;5002334;28;45324;-80
2022/01/19 09:22:03;;;;;;;;;53.25;45.25;;;;;5.76;82.78;102381.09;5001458;28;45381;-79
2022/01/19 09:24:30;;;;;;;;;53.25;42.50;;;;;5.78;82.88;102380.03;5001623;28;45221;-80
2022/01/19 09:26:56;;;;;;;;;52.00;44.75;;;;;5.79;82.99;102380.91;5002954;28;45365;-78
2022/01/19 09:29:21;;;;;;;;;53.75;43.50;;;;;5.79;83.44;102379.13;5002768;28;45350;-79
2022/01/19 09:31:46;;;;;;;;;53.00;41.00;;;;;5.75;83.40;102369.69;5002452;28;45575;-80
2022/01/19 09:34:15;;;;;;;;;50.75;40.75;;;;;5.77;83.21;102365.16;5000732;28;46733;-80
2022/01/19 09:36:46;;;;;;;;;50.25;40.75;;;;;5.89;83.61;102376.69;5016142;28;46390;-79
2022/01/19 09:39:18;;;;;;;;;52.75;45.00;;;;;5.90;83.29;102369.63;5001724;28;45460;-80
2022/01/19 09:41:45;;;;;;;;;54.50;44.75;;;;;5.75;83.62;102347.75;5002037;28;45384;-82
2022/01/19 09:44:10;;;;;;;;;53.75;43.75;;;;;5.99;83.25;102384.00;5001909;28;45408;-81
2022/01/19 09:46:37;;;;;;;;;53.75;44.25;;;;;5.93;83.36;102367.63;4984332;28;47280;-80
2022/01/19 09:49:05;;;;;;;;;52.50;41.50;;;;;6.09;83.41;102386.88;5000894;28;45401;-80
2022/01/19 09:51:31;;;;;;;;;47.50;40.00;;;;;6.09;83.22;102387.75;5000507;28;45401;-80
2022/01/19 09:53:57;;;;;;;;;53.75;43.50;;;;;6.09;83.50;102379.81;4999935;28;46183;-80
2022/01/19 09:56:22;;;;;;;;;56.00;46.00;;;;;6.12;83.50;102382.25;5001271;28;46079;-80
2022/01/19 09:58:48;;;;;;;;;54.00;43.25;;;;;6.17;82.95;102381.94;5001070;28;45328;-80
2022/01/19 10:01:22;;;;;;;;;55.50;45.25;;;;;6.24;83.23;102387.66;5001919;28;45299;-80
2022/01/19 10:03:47;;;;;;;;;52.00;40.50;;;;;6.16;83.16;102370.53;5001760;28;46083;-80
2022/01/19 10:06:16;;;;;;;;;53.00;44.50;;;;;6.22;83.19;102379.81;5001312;28;46209;-80
2022/01/19 10:08:50;;;;;;;;;49.00;42.00;;;;;6.27;83.24;102390.94;5016500;28;45578;-80
2022/01/19 10:11:21;;;;;;;;;50.50;40.25;;;;;6.29;83.68;102391.66;5001535;28;45329;-80
2022/01/19 10:19:33;;;;;;;;;58.00;47.50;;;;;6.35;83.72;102379.84;5001123;28;45256;-80
2022/01/19 10:22:23;;;;;;;;;58.75;47.50;;;;;6.39;83.52;102380.47;4983750;28;45292;-80
2022/01/19 10:24:51;;;;;;;;;56.25;47.50;;;;;6.35;83.61;102377.22;5001178;28;46114;-80
2022/01/19 10:27:26;;;;;;;;;55.75;46.50;;;;;6.41;83.54;102376.75;4983454;28;48296;-80
2022/01/19 10:30:14;;;;;;;;;52.75;42.75;;;;;6.45;83.64;102382.69;5001104;28;45350;-80
2022/01/19 10:32:46;;;;;;;;;49.75;43.25;;;;;6.43;83.49;102368.72;5001529;28;45203;-80
2022/01/19 10:35:21;;;;;;;;;54.50;44.50;;;;;6.50;83.20;102385.00;5001227;28;45349;-80
2022/01/19 10:38:09;;;;;;;;;56.75;44.75;;;;;6.52;83.25;102383.09;5000813;28;45299;-80
2022/01/19 10:40:40;;;;;;;;;59.25;48.75;;;;;6.53;83.41;102374.22;4983203;28;45310;-79
2022/01/19 10:43:27;;;;;;;;;54.25;43.75;;;;;6.45;83.20;102361.56;4977203;28;45299;-80
2022/01/19 10:45:54;;;;;;;;;56.25;47.75;;;;;6.41;82.83;102365.38;4944088;28;47216;-79
2022/01/19 10:48:39;;;;;;;;;57.00;47.00;;;;;6.49;83.28;102372.75;4960792;28;47540;-79
2022/01/19 10:51:07;;;;;;;;;57.50;47.00;;;;;6.53;83.14;102367.13;4961851;28;45319;-76
2022/01/19 10:53:33;;;;;;;;;57.00;47.75;;;;;6.37;83.22;102337.50;4961614;28;45252;-77
2022/01/19 10:55:58;;;;;;;;;62.25;49.25;;;;;6.50;83.40;102350.66;4944092;28;45518;-79
2022/01/19 10:58:24;;;;;;;;;57.25;46.00;;;;;6.59;83.12;102350.03;4960155;28;48089;-78
2022/01/19 11:00:54;;;;;;;;;62.75;52.00;;;;;6.49;82.98;102333.97;4961637;28;45225;-79
2022/01/19 11:03:23;;;;;;;;;65.50;53.00;;;;;6.59;82.80;102338.59;4961811;28;45315;-79
2022/01/19 11:05:57;;;;;;;;;57.75;48.25;;;;;6.53;83.65;102322.22;4944014;28;47090;-79
2022/01/19 11:08:25;;;;;;;;;62.25;51.75;;;;;6.47;83.36;102309.47;4943485;28;47299;-79
2022/01/19 11:10:53;;;;;;;;;67.00;54.25;;;;;6.61;83.74;102332.25;4961307;28;45338;-79
2022/01/19 11:15:52;;;;;;;;;61.00;51.00;;;;;6.61;83.54;102319.03;4961137;28;45339;-79
2022/01/19 11:18:19;;;;;;;;;61.50;47.50;;;;;6.64;83.13;102316.19;4978333;28;47382;-79
2022/01/19 11:20:46;;;;;;;;;47.50;40.25;;;;;6.65;83.35;102327.59;5000600;28;45344;-78
2022/01/19 11:23:24;;;;;;;;;52.00;43.50;;;;;6.63;83.32;102329.50;4982633;28;45309;-80
2022/01/19 11:25:57;;;;;;;;;56.00;45.75;;;;;6.49;83.64;102299.63;5000068;28;45474;-80
2022/01/19 11:28:26;;;;;;;;;55.75;47.75;;;;;6.65;83.29;102309.94;4982599;28;48590;-80
2022/01/19 11:30:53;;;;;;;;;59.50;47.75;;;;;6.61;83.43;102305.00;4982551;28;45386;-79
2022/01/19 11:33:25;;;;;;;;;53.75;45.75;;;;;6.74;83.56;102320.81;5000394;28;45361;-79
2022/01/19 11:35:56;;;;;;;;;55.00;45.25;;;;;6.67;83.62;102313.31;5000199;28;45319;-79
2022/01/19 11:38:43;;;;;;;;;60.75;50.00;;;;;6.77;83.62;102321.44;4981912;28;48305;-78
2022/01/19 11:41:08;;;;;;;;;61.75;49.25;;;;;6.77;83.58;102324.06;5000001;28;45262;-79
2022/01/19 11:43:37;;;;;;;;;64.25;49.75;;;;;6.75;83.35;102326.00;4982486;28;45289;-76
2022/01/19 11:46:05;;;;;;;;;62.75;47.25;;;;;6.66;82.72;102294.94;5000213;28;45417;-80
2022/01/19 11:48:35;;;;;;;;;57.50;46.75;;;;;6.72;83.53;102301.56;4992647;28;45221;-77
2022/01/19 11:51:27;;;;;;;;;57.50;47.50;;;;;6.78;83.55;102286.13;4975223;28;45335;-78
2022/01/19 11:54:10;;;;;;;;;58.25;46.75;;;;;6.80;83.18;102292.13;4963605;28;45509;-78
2022/01/19 11:57:04;;;;;;;;;62.25;49.50;;;;;6.85;83.58;102283.88;4999681;28;45511;-76
2022/01/19 11:59:30;;;;;;;;;56.50;46.00;;;;;6.89;83.76;102290.63;4979706;28;47506;-77
2022/01/19 12:02:20;;;;;;;;;56.50;46.00;;;;;6.91;82.91;102286.09;4999867;28;45166;-78
2022/01/19 12:04:50;;;;;;;;;57.00;47.50;;;;;6.89;83.21;102274.75;5000283;28;45519;-77
2022/01/19 12:07:36;;;;;;;;;59.75;48.75;;;;;6.91;82.81;102278.16;4999829;28;45244;-79
2022/01/19 12:10:08;;;;;;;;;51.25;39.50;;;;;6.91;83.09;102280.78;4999746;28;45294;-79
2022/01/19 12:12:40;;;;;;;;;58.75;46.50;;;;;6.84;83.03;102278.72;4999789;28;45314;-80
2022/01/19 12:15:09;;;;;;;;;56.75;48.00;;;;;6.94;82.90;102282.38;4982076;28;45379;-78
2022/01/19 12:18:10;;;;;;;;;55.25;44.00;;;;;6.90;83.16;102265.91;4999481;28;45263;-78
2022/01/19 12:20:52;;;;;;;;;55.75;45.50;;;;;6.86;82.67;102259.16;4938828;28;46922;-79
2022/01/19 12:23:29;;;;;;;;;55.50;45.00;;;;;6.97;83.15;102276.84;4964532;28;46061;-78
2022/01/19 12:25:57;;;;;;;;;55.25;45.50;;;;;6.85;83.07;102249.53;4976763;28;45318;-78
2022/01/19 12:28:54;;;;;;;;;53.50;44.25;;;;;7.00;83.05;102273.16;4979684;28;45547;-78
2022/01/19 12:31:22;;;;;;;;;58.25;48.25;;;;;7.04;83.01;102270.16;4996871;28;45309;-78
2022/01/19 12:34:07;;;;;;;;;57.25;48.25;;;;;7.06;82.70;102264.75;4981141;28;45873;-78
2022/01/19 12:36:50;;;;;;;;;56.00;46.00;;;;;7.11;82.97;102256.47;4996049;28;45420;-78
2022/01/19 12:39:25;;;;;;;;;56.75;44.50;;;;;7.11;82.96;102259.13;4989077;28;45657;-78